»·PEaware :: MET1717 KLAS-KPHX

MET1717 :: KLAS-KPHX

FLIGHT INFORMATION

Flight Status: Arrived
Operator:
MetroAir (website)
More flights by this operator :: More flights under this callsign
Pilot: Colin L. (27704)
Aircraft: BOEING 737-800
(B738)
More flights by this aircraft type
Origin: KLAS McCarran Intl
United States
Destination: KPHX Phoenix Sky Harbor Intl
United States
More flights between these airports :: More routes between these airports
Route: +COWBY8 COWBY TENTS BRUSR1
File this flight plan on PilotEdge
Remarks:
Altitude:
(Current/Filed)
29,000ft
Speed:
(Current/Filed)
420kts
Departed: 11-May-20 12:32 PM
Arrived: 11-May-20 01:23 PM
Distance/Time
Traveled:
222nm/0:50
Distance/Time
To Go:
Arrived

Flight Plot

Page will automatically refresh every two minutes.


Map Options




Map Legend


Flown Route
Filed Route
Departure Airport
Arrival Airport
Navaid (VOR, NDB)
Fix

Horizontal Profiles

Position Reports

Time Latitude Longitude Heading Altitude Ground
Speed
11-May-20 12:08 36.080508 -115.139069 315 2071ft 0kts
11-May-20 12:09 36.080508 -115.139069 315 2071ft 0kts
11-May-20 12:10 36.080508 -115.139069 315 2071ft 0kts
11-May-20 12:11 36.080508 -115.139069 315 2071ft 0kts
11-May-20 12:12 36.080508 -115.139069 315 2071ft 0kts
11-May-20 12:13 36.080508 -115.139069 315 2071ft 0kts
11-May-20 12:14 36.080508 -115.139069 315 2071ft 0kts
11-May-20 12:15 36.080508 -115.139069 315 2071ft 0kts
11-May-20 12:16 36.080508 -115.139069 315 2071ft 0kts
11-May-20 12:17 36.080508 -115.139069 315 2071ft 0kts
11-May-20 12:18 36.080508 -115.139069 315 2071ft 0kts
11-May-20 12:19 36.080508 -115.139069 315 2071ft 0kts
11-May-20 12:20 36.080508 -115.139069 315 2071ft 0kts
11-May-20 12:21 36.080404 -115.138939 314 2070ft 4kts
11-May-20 12:22 36.080181 -115.138307 245 2068ft 1kts
11-May-20 12:23 36.080208 -115.138245 235 2068ft 0kts
11-May-20 12:24 36.080208 -115.138245 235 2068ft 0kts
11-May-20 12:25 36.080187 -115.138281 234 2068ft 2kts
11-May-20 12:26 36.079268 -115.139047 215 2074ft 6kts
11-May-20 12:27 36.078273 -115.135226 89 2066ft 22kts
11-May-20 12:28 36.078275 -115.128234 89 2046ft 17kts
11-May-20 12:29 36.078278 -115.123431 90 2036ft 14kts
11-May-20 12:30 36.077512 -115.121511 139 2037ft 10kts
11-May-20 12:31 36.077400 -115.151063 266 2798ft 195kts
11-May-20 12:32 36.071126 -115.234685 239 5316ft 263kts
11-May-20 12:33 36.012491 -115.282346 200 7027ft 264kts
11-May-20 12:34 35.942539 -115.290539 167 8072ft 265kts
11-May-20 12:35 35.873529 -115.256404 141 10043ft 281kts
11-May-20 12:36 35.842322 -115.161362 110 11047ft 319kts
11-May-20 12:37 35.821102 -115.054614 90 13080ft 332kts
11-May-20 12:38 35.833588 -114.941077 87 15091ft 336kts
11-May-20 12:40 35.843905 -114.827090 87 17083ft 336kts
11-May-20 12:41 35.854175 -114.712451 87 19075ft 336kts
11-May-20 12:42 35.864263 -114.598631 86 20951ft 335kts
11-May-20 12:43 35.874321 -114.483715 86 22724ft 346kts
11-May-20 12:44 35.885209 -114.357872 85 24706ft 396kts
11-May-20 12:45 35.897274 -114.217111 85 26476ft 422kts
11-May-20 12:46 35.909255 -114.074978 85 28183ft 418kts
11-May-20 12:47 35.916643 -113.934110 102 29016ft 414kts
11-May-20 12:48 35.876430 -113.800586 111 29134ft 467kts
11-May-20 12:49 35.833138 -113.645523 110 29068ft 500kts
11-May-20 12:50 35.788228 -113.485320 111 29031ft 499kts
11-May-20 12:51 35.743033 -113.325011 111 29027ft 499kts
11-May-20 12:52 35.697586 -113.164781 111 29103ft 498kts
11-May-20 12:53 35.651725 -113.004056 111 29224ft 498kts
11-May-20 12:54 35.605441 -112.842829 110 29222ft 503kts
11-May-20 12:55 35.558578 -112.680343 110 29225ft 504kts
11-May-20 12:56 35.504128 -112.522945 129 29233ft 499kts
11-May-20 12:57 35.395092 -112.425328 166 29227ft 482kts
11-May-20 12:57 35.285948 -112.410928 175 29238ft 477kts
11-May-20 12:59 35.133388 -112.380200 173 29227ft 478kts
11-May-20 13:00 35.003114 -112.351967 173 28808ft 475kts
11-May-20 13:00 34.898812 -112.329431 173 27552ft 462kts
11-May-20 13:02 34.754806 -112.297799 172 25698ft 425kts
11-May-20 13:02 34.665137 -112.278114 173 23937ft 384kts
11-May-20 13:03 34.562279 -112.255580 173 21905ft 370kts
11-May-20 13:05 34.447530 -112.230411 171 19785ft 353kts
11-May-20 13:05 34.369201 -112.210202 170 18414ft 335kts
11-May-20 13:06 34.281088 -112.187394 170 16710ft 316kts
11-May-20 13:07 34.197019 -112.165671 170 15027ft 302kts
11-May-20 13:08 34.116345 -112.144868 169 13432ft 294kts
11-May-20 13:09 34.036043 -112.143008 185 12040ft 289kts
11-May-20 13:10 33.957386 -112.151494 186 10518ft 282kts
11-May-20 13:11 33.880641 -112.162957 190 8995ft 274kts
11-May-20 13:12 33.811232 -112.177645 190 8068ft 247kts
11-May-20 13:13 33.742606 -112.192156 190 7760ft 248kts
11-May-20 13:14 33.680001 -112.205357 191 7062ft 223kts
11-May-20 13:15 33.618384 -112.218354 190 7059ft 225kts
11-May-20 13:16 33.554531 -112.231948 191 6048ft 226kts
11-May-20 13:17 33.491191 -112.245594 191 4789ft 247kts
11-May-20 13:18 33.437673 -112.203769 106 3971ft 238kts
11-May-20 13:19 33.440855 -112.126014 88 2723ft 219kts
11-May-20 13:20 33.440882 -112.061562 89 1707ft 165kts
11-May-20 13:21 33.440851 -112.008154 90 1131ft 121kts
11-May-20 13:22 33.439435 -111.999919 184 1134ft 14kts

Navigation Log

Ident Type
Flight plan parsing failed, navigation log unavailable